Terminal Aerodrome Forecast
Issued by NWS Quad Cities IA IL

Home | Current Version | Previous Version | Text Only | Print | Product List | Glossary On
Versions: 1 2 3 4 5 6 7 8 9 10 11 12 13 14 15
000
FTUS43 KDVN 231735
TAFMLI
TAF
KMLI 231735Z 2318/2418 15015G20KT P6SM VCSH OVC035
     FM231900 15015G20KT P6SM VCSH OVC028
     FM240000 14012KT P6SM VCSH OVC020 WS020/20047KT
     FM240600 16013KT P6SM BKN040 WS020/22048KT
     FM241400 20013G17KT P6SM BKN040 WS020/24038KT=

USA.gov is the U.S. government's official web portal to all federal, state and local government web resources and services.